sensor_id;sensor_type;location;lat;lon;timestamp;pressure;altitude;pressure_sealevel;temperature;humidity
59487;BME280;45298;54.918;73.504;2023-07-31T00:00:58;99479.66;;;18.42;78.63
59487;BME280;45298;54.918;73.504;2023-07-31T00:03:27;99461.59;;;18.18;79.04
59487;BME280;45298;54.918;73.504;2023-07-31T00:05:55;99482.88;;;18.20;79.64
59487;BME280;45298;54.918;73.504;2023-07-31T00:08:24;99477.13;;;18.06;79.67
59487;BME280;45298;54.918;73.504;2023-07-31T00:10:53;99458.66;;;17.85;79.56
59487;BME280;45298;54.918;73.504;2023-07-31T00:13:22;99471.03;;;17.78;79.83
59487;BME280;45298;54.918;73.504;2023-07-31T00:15:51;99461.38;;;17.67;79.79
59487;BME280;45298;54.918;73.504;2023-07-31T00:18:20;99476.16;;;17.71;80.00
59487;BME280;45298;54.918;73.504;2023-07-31T00:20:49;99425.63;;;17.40;80.19
59487;BME280;45298;54.918;73.504;2023-07-31T00:23:17;99475.63;;;17.67;79.83
59487;BME280;45298;54.918;73.504;2023-07-31T00:25:46;99466.16;;;17.55;80.33
59487;BME280;45298;54.918;73.504;2023-07-31T00:28:15;99470.00;;;17.52;80.70
59487;BME280;45298;54.918;73.504;2023-07-31T00:30:44;99464.94;;;17.49;80.88
59487;BME280;45298;54.918;73.504;2023-07-31T00:33:13;99469.50;;;17.57;81.03
59487;BME280;45298;54.918;73.504;2023-07-31T00:35:42;99424.88;;;17.30;80.96
59487;BME280;45298;54.918;73.504;2023-07-31T00:38:10;99478.16;;;17.69;81.68
59487;BME280;45298;54.918;73.504;2023-07-31T00:40:39;99471.63;;;17.72;81.58
59487;BME280;45298;54.918;73.504;2023-07-31T00:43:08;99453.16;;;17.68;81.56
59487;BME280;45298;54.918;73.504;2023-07-31T00:45:37;99453.25;;;17.77;81.76
59487;BME280;45298;54.918;73.504;2023-07-31T00:48:06;99458.34;;;17.88;82.08
59487;BME280;45298;54.918;73.504;2023-07-31T00:50:35;99464.88;;;18.04;82.55
59487;BME280;45298;54.918;73.504;2023-07-31T00:53:04;99418.88;;;17.80;82.24
59487;BME280;45298;54.918;73.504;2023-07-31T00:55:34;99465.41;;;18.16;82.05
59487;BME280;45298;54.918;73.504;2023-07-31T00:58:03;99421.06;;;18.03;82.37
59487;BME280;45298;54.918;73.504;2023-07-31T01:00:31;99471.91;;;18.39;82.69
59487;BME280;45298;54.918;73.504;2023-07-31T01:03:00;99468.59;;;18.46;82.86
59487;BME280;45298;54.918;73.504;2023-07-31T01:11:21;99471.28;;;20.46;79.66
59487;BME280;45298;54.918;73.504;2023-07-31T01:13:57;99477.19;;;21.67;75.86
59487;BME280;45298;54.918;73.504;2023-07-31T01:16:27;99463.81;;;22.57;73.07
59487;BME280;45298;54.918;73.504;2023-07-31T01:18:56;99471.47;;;23.42;70.72
59487;BME280;45298;54.918;73.504;2023-07-31T01:24:48;99467.41;;;24.73;67.43
59487;BME280;45298;54.918;73.504;2023-07-31T01:27:30;99481.59;;;25.38;65.42
59487;BME280;45298;54.918;73.504;2023-07-31T01:30:16;99468.06;;;25.78;63.84
59487;BME280;45298;54.918;73.504;2023-07-31T01:32:48;99476.34;;;25.36;64.53
59487;BME280;45298;54.918;73.504;2023-07-31T01:35:18;99476.13;;;24.69;65.63
59487;BME280;45298;54.918;73.504;2023-07-31T01:37:48;99472.91;;;24.17;67.04
59487;BME280;45298;54.918;73.504;2023-07-31T01:40:17;99439.19;;;23.69;67.63
59487;BME280;45298;54.918;73.504;2023-07-31T01:42:45;99462.16;;;23.73;68.04
59487;BME280;45298;54.918;73.504;2023-07-31T01:45:14;99473.91;;;24.09;67.24
59487;BME280;45298;54.918;73.504;2023-07-31T01:47:43;99463.66;;;24.74;65.19
59487;BME280;45298;54.918;73.504;2023-07-31T01:50:12;99465.50;;;25.43;63.56
59487;BME280;45298;54.918;73.504;2023-07-31T01:52:41;99482.47;;;25.72;63.14
59487;BME280;45298;54.918;73.504;2023-07-31T01:55:14;99463.03;;;25.48;63.69
59487;BME280;45298;54.918;73.504;2023-07-31T01:57:43;99472.44;;;25.92;62.28
59487;BME280;45298;54.918;73.504;2023-07-31T02:00:12;99475.53;;;26.30;61.94
59487;BME280;45298;54.918;73.504;2023-07-31T02:02:40;99466.91;;;26.46;61.46
59487;BME280;45298;54.918;73.504;2023-07-31T02:05:09;99463.34;;;26.52;61.02
59487;BME280;45298;54.918;73.504;2023-07-31T02:07:38;99452.59;;;26.71;60.67
59487;BME280;45298;54.918;73.504;2023-07-31T02:10:07;99461.53;;;26.92;60.16
59487;BME280;45298;54.918;73.504;2023-07-31T02:12:36;99465.03;;;26.99;59.94
59487;BME280;45298;54.918;73.504;2023-07-31T02:15:05;99471.28;;;27.06;59.67
59487;BME280;45298;54.918;73.504;2023-07-31T02:17:35;99463.03;;;27.20;59.46
59487;BME280;45298;54.918;73.504;2023-07-31T02:20:04;99462.94;;;27.40;59.10
59487;BME280;45298;54.918;73.504;2023-07-31T02:22:34;99473.47;;;27.62;58.54
59487;BME280;45298;54.918;73.504;2023-07-31T02:25:03;99469.03;;;27.67;58.25
59487;BME280;45298;54.918;73.504;2023-07-31T02:27:31;99473.13;;;27.77;58.36
59487;BME280;45298;54.918;73.504;2023-07-31T02:30:00;99468.84;;;27.87;57.57
59487;BME280;45298;54.918;73.504;2023-07-31T02:32:29;99424.25;;;27.82;57.20
59487;BME280;45298;54.918;73.504;2023-07-31T02:34:58;99454.00;;;28.09;57.02
59487;BME280;45298;54.918;73.504;2023-07-31T02:37:27;99461.75;;;28.12;56.82
59487;BME280;45298;54.918;73.504;2023-07-31T02:39:57;99460.19;;;28.23;56.31
59487;BME280;45298;54.918;73.504;2023-07-31T02:42:28;99441.28;;;27.77;56.87
59487;BME280;45298;54.918;73.504;2023-07-31T02:44:57;99448.34;;;27.85;56.98
59487;BME280;45298;54.918;73.504;2023-07-31T02:47:26;99450.91;;;27.80;56.62
59487;BME280;45298;54.918;73.504;2023-07-31T02:49:55;99460.13;;;27.79;56.63
59487;BME280;45298;54.918;73.504;2023-07-31T02:52:26;99467.78;;;27.88;57.01
59487;BME280;45298;54.918;73.504;2023-07-31T02:54:55;99455.91;;;27.83;56.29
59487;BME280;45298;54.918;73.504;2023-07-31T02:57:24;99425.09;;;27.57;55.82
59487;BME280;45298;54.918;73.504;2023-07-31T02:59:53;99461.84;;;27.73;55.90
59487;BME280;45298;54.918;73.504;2023-07-31T03:02:21;99457.78;;;27.57;56.06
59487;BME280;45298;54.918;73.504;2023-07-31T03:04:50;99424.34;;;27.50;55.30
59487;BME280;45298;54.918;73.504;2023-07-31T03:07:19;99466.88;;;27.76;55.05
59487;BME280;45298;54.918;73.504;2023-07-31T03:09:49;99464.69;;;27.85;54.63
59487;BME280;45298;54.918;73.504;2023-07-31T03:12:17;99453.56;;;27.86;54.59
59487;BME280;45298;54.918;73.504;2023-07-31T03:14:48;99473.41;;;27.94;53.72
59487;BME280;45298;54.918;73.504;2023-07-31T03:17:16;99468.66;;;27.64;54.43
59487;BME280;45298;54.918;73.504;2023-07-31T03:19:45;99457.69;;;27.38;54.57
59487;BME280;45298;54.918;73.504;2023-07-31T03:22:14;99455.72;;;27.20;55.57
59487;BME280;45298;54.918;73.504;2023-07-31T03:24:43;99431.09;;;27.08;54.96
59487;BME280;45298;54.918;73.504;2023-07-31T03:27:12;99468.81;;;27.37;54.76
59487;BME280;45298;54.918;73.504;2023-07-31T03:29:41;99473.25;;;27.63;55.32
59487;BME280;45298;54.918;73.504;2023-07-31T03:32:12;99472.69;;;27.80;53.88
59487;BME280;45298;54.918;73.504;2023-07-31T03:34:41;99473.59;;;27.73;53.67
59487;BME280;45298;54.918;73.504;2023-07-31T03:37:10;99468.28;;;27.53;54.35
59487;BME280;45298;54.918;73.504;2023-07-31T03:39:39;99465.69;;;27.65;54.68
59487;BME280;45298;54.918;73.504;2023-07-31T03:42:08;99476.47;;;27.79;54.36
59487;BME280;45298;54.918;73.504;2023-07-31T03:44:37;99472.44;;;27.63;54.24
59487;BME280;45298;54.918;73.504;2023-07-31T03:47:05;99461.34;;;27.57;54.70
59487;BME280;45298;54.918;73.504;2023-07-31T03:49:38;99475.28;;;27.74;53.47
59487;BME280;45298;54.918;73.504;2023-07-31T03:52:10;99465.38;;;27.55;52.94
59487;BME280;45298;54.918;73.504;2023-07-31T03:54:39;99462.19;;;27.58;53.33
59487;BME280;45298;54.918;73.504;2023-07-31T03:57:08;99474.91;;;27.64;53.28
59487;BME280;45298;54.918;73.504;2023-07-31T03:59:37;99475.59;;;27.85;53.13
59487;BME280;45298;54.918;73.504;2023-07-31T04:02:09;99473.03;;;27.90;53.05
59487;BME280;45298;54.918;73.504;2023-07-31T04:04:38;99460.56;;;27.75;52.66
59487;BME280;45298;54.918;73.504;2023-07-31T04:07:06;99447.69;;;27.64;52.71
59487;BME280;45298;54.918;73.504;2023-07-31T04:09:35;99455.09;;;27.82;52.95
59487;BME280;45298;54.918;73.504;2023-07-31T04:12:05;99457.44;;;27.97;52.84
59487;BME280;45298;54.918;73.504;2023-07-31T04:14:34;99475.69;;;28.22;52.43
59487;BME280;45298;54.918;73.504;2023-07-31T04:17:03;99476.47;;;28.48;51.90
59487;BME280;45298;54.918;73.504;2023-07-31T04:19:32;99469.63;;;28.57;52.34
59487;BME280;45298;54.918;73.504;2023-07-31T04:22:01;99435.84;;;28.58;51.47
59487;BME280;45298;54.918;73.504;2023-07-31T04:24:32;99463.38;;;28.75;50.75
59487;BME280;45298;54.918;73.504;2023-07-31T04:27:01;99474.00;;;28.95;50.65
59487;BME280;45298;54.918;73.504;2023-07-31T04:29:30;99434.78;;;28.78;50.39
59487;BME280;45298;54.918;73.504;2023-07-31T04:31:59;99473.94;;;29.02;50.25
59487;BME280;45298;54.918;73.504;2023-07-31T04:34:28;99469.19;;;29.09;50.02
59487;BME280;45298;54.918;73.504;2023-07-31T04:36:57;99472.91;;;29.15;49.50
59487;BME280;45298;54.918;73.504;2023-07-31T04:39:26;99481.47;;;29.19;49.52
59487;BME280;45298;54.918;73.504;2023-07-31T04:41:54;99480.31;;;29.27;49.17
59487;BME280;45298;54.918;73.504;2023-07-31T04:44:23;99467.47;;;29.27;48.58
59487;BME280;45298;54.918;73.504;2023-07-31T04:46:52;99477.13;;;29.30;48.95
59487;BME280;45298;54.918;73.504;2023-07-31T04:49:21;99483.59;;;29.47;48.86
59487;BME280;45298;54.918;73.504;2023-07-31T04:51:50;99477.66;;;29.38;49.00
59487;BME280;45298;54.918;73.504;2023-07-31T04:54:19;99483.56;;;29.35;48.64
59487;BME280;45298;54.918;73.504;2023-07-31T04:56:48;99470.88;;;29.41;48.12
59487;BME280;45298;54.918;73.504;2023-07-31T04:59:17;99465.78;;;29.57;47.04
59487;BME280;45298;54.918;73.504;2023-07-31T05:01:46;99451.19;;;29.63;46.46
59487;BME280;45298;54.918;73.504;2023-07-31T05:04:15;99466.28;;;29.77;46.93
59487;BME280;45298;54.918;73.504;2023-07-31T05:06:44;99475.44;;;29.83;47.44
59487;BME280;45298;54.918;73.504;2023-07-31T05:09:13;99475.09;;;29.91;46.47
59487;BME280;45298;54.918;73.504;2023-07-31T05:11:42;99477.22;;;29.77;45.88
59487;BME280;45298;54.918;73.504;2023-07-31T05:14:14;99477.16;;;29.96;45.74
59487;BME280;45298;54.918;73.504;2023-07-31T05:16:44;99466.34;;;30.01;45.34
59487;BME280;45298;54.918;73.504;2023-07-31T05:19:13;99459.06;;;30.19;45.08
59487;BME280;45298;54.918;73.504;2023-07-31T05:21:45;99462.50;;;30.38;45.05
59487;BME280;45298;54.918;73.504;2023-07-31T05:24:15;99467.47;;;30.53;43.81
59487;BME280;45298;54.918;73.504;2023-07-31T05:26:44;99467.47;;;30.65;43.76
59487;BME280;45298;54.918;73.504;2023-07-31T05:29:14;99470.59;;;30.56;43.05
59487;BME280;45298;54.918;73.504;2023-07-31T05:31:43;99458.28;;;30.71;42.52
59487;BME280;45298;54.918;73.504;2023-07-31T05:34:12;99457.84;;;30.91;43.06
59487;BME280;45298;54.918;73.504;2023-07-31T05:36:41;99451.50;;;31.02;43.12
59487;BME280;45298;54.918;73.504;2023-07-31T05:39:10;99452.41;;;31.20;42.99
59487;BME280;45298;54.918;73.504;2023-07-31T05:41:40;99460.06;;;31.35;42.35
59487;BME280;45298;54.918;73.504;2023-07-31T05:44:10;99448.16;;;31.29;42.10
59487;BME280;45298;54.918;73.504;2023-07-31T05:46:39;99462.69;;;31.01;42.31
59487;BME280;45298;54.918;73.504;2023-07-31T05:49:10;99459.25;;;30.53;43.45
59487;BME280;45298;54.918;73.504;2023-07-31T05:51:39;99461.00;;;30.06;43.41
59487;BME280;45298;54.918;73.504;2023-07-31T05:54:09;99462.88;;;30.18;44.35
59487;BME280;45298;54.918;73.504;2023-07-31T05:56:37;99443.91;;;30.52;43.34
59487;BME280;45298;54.918;73.504;2023-07-31T05:59:09;99443.28;;;30.73;42.97
59487;BME280;45298;54.918;73.504;2023-07-31T06:01:42;99445.56;;;30.53;43.65
59487;BME280;45298;54.918;73.504;2023-07-31T06:04:11;99442.31;;;30.15;44.37
59487;BME280;45298;54.918;73.504;2023-07-31T06:06:42;99437.09;;;29.90;44.54
59487;BME280;45298;54.918;73.504;2023-07-31T06:09:11;99454.53;;;29.65;44.24
59487;BME280;45298;54.918;73.504;2023-07-31T06:11:40;99457.00;;;29.54;45.34
59487;BME280;45298;54.918;73.504;2023-07-31T06:14:09;99437.22;;;29.29;45.34
59487;BME280;45298;54.918;73.504;2023-07-31T06:16:39;99407.31;;;29.03;45.82
59487;BME280;45298;54.918;73.504;2023-07-31T06:19:08;99432.88;;;29.09;46.47
59487;BME280;45298;54.918;73.504;2023-07-31T06:21:39;99446.53;;;29.09;46.48
59487;BME280;45298;54.918;73.504;2023-07-31T06:24:11;99445.94;;;29.07;46.32
59487;BME280;45298;54.918;73.504;2023-07-31T06:26:41;99437.47;;;28.97;46.55
59487;BME280;45298;54.918;73.504;2023-07-31T06:29:10;99446.16;;;28.75;47.62
59487;BME280;45298;54.918;73.504;2023-07-31T06:31:41;99443.88;;;28.53;46.49
59487;BME280;45298;54.918;73.504;2023-07-31T06:34:13;99436.38;;;28.30;46.06
59487;BME280;45298;54.918;73.504;2023-07-31T06:36:42;99439.25;;;28.16;46.43
59487;BME280;45298;54.918;73.504;2023-07-31T06:39:13;99416.88;;;28.08;46.72
59487;BME280;45298;54.918;73.504;2023-07-31T06:41:43;99438.41;;;28.16;46.57
59487;BME280;45298;54.918;73.504;2023-07-31T06:44:12;99400.50;;;27.89;46.34
59487;BME280;45298;54.918;73.504;2023-07-31T06:46:42;99413.78;;;28.04;46.07
59487;BME280;45298;54.918;73.504;2023-07-31T06:49:12;99409.47;;;28.15;45.52
59487;BME280;45298;54.918;73.504;2023-07-31T06:51:45;99423.09;;;28.71;44.79
59487;BME280;45298;54.918;73.504;2023-07-31T06:54:14;99410.34;;;28.83;43.98
59487;BME280;45298;54.918;73.504;2023-07-31T06:56:44;99417.03;;;28.87;44.43
59487;BME280;45298;54.918;73.504;2023-07-31T06:59:14;99409.91;;;28.86;45.17
59487;BME280;45298;54.918;73.504;2023-07-31T07:01:43;99405.13;;;29.12;43.75
59487;BME280;45298;54.918;73.504;2023-07-31T07:04:13;99405.09;;;29.54;43.21
59487;BME280;45298;54.918;73.504;2023-07-31T07:06:42;99409.97;;;30.12;42.14
59487;BME280;45298;54.918;73.504;2023-07-31T07:09:14;99405.50;;;30.47;41.76
59487;BME280;45298;54.918;73.504;2023-07-31T07:11:43;99398.78;;;30.95;40.81
59487;BME280;45298;54.918;73.504;2023-07-31T07:14:12;99391.41;;;30.96;41.20
59487;BME280;45298;54.918;73.504;2023-07-31T07:16:44;99384.84;;;31.26;40.57
59487;BME280;45298;54.918;73.504;2023-07-31T07:19:27;99376.59;;;31.60;39.81
59487;BME280;45298;54.918;73.504;2023-07-31T07:22:12;99397.25;;;32.02;38.81
59487;BME280;45298;54.918;73.504;2023-07-31T07:24:54;99385.03;;;32.32;38.43
59487;BME280;45298;54.918;73.504;2023-07-31T07:27:39;99403.00;;;32.67;37.62
59487;BME280;45298;54.918;73.504;2023-07-31T07:30:18;99393.69;;;32.90;36.74
59487;BME280;45298;54.918;73.504;2023-07-31T07:33:01;99393.75;;;33.00;36.96
59487;BME280;45298;54.918;73.504;2023-07-31T07:35:42;99392.56;;;33.19;35.89
59487;BME280;45298;54.918;73.504;2023-07-31T07:38:19;99384.38;;;32.96;35.83
59487;BME280;45298;54.918;73.504;2023-07-31T07:40:58;99383.13;;;33.09;35.36
59487;BME280;45298;54.918;73.504;2023-07-31T07:43:38;99376.03;;;33.13;36.01
59487;BME280;45298;54.918;73.504;2023-07-31T07:46:12;99378.31;;;33.27;35.97
59487;BME280;45298;54.918;73.504;2023-07-31T07:48:41;99344.25;;;33.23;35.54
59487;BME280;45298;54.918;73.504;2023-07-31T07:51:11;99368.91;;;33.18;35.76
59487;BME280;45298;54.918;73.504;2023-07-31T07:53:39;99350.16;;;32.54;36.45
59487;BME280;45298;54.918;73.504;2023-07-31T07:56:08;99389.19;;;32.34;37.70
59487;BME280;45298;54.918;73.504;2023-07-31T07:58:37;99378.66;;;31.70;38.77
59487;BME280;45298;54.918;73.504;2023-07-31T08:01:09;99388.69;;;30.96;40.93
59487;BME280;45298;54.918;73.504;2023-07-31T08:03:39;99393.13;;;30.44;41.83
59487;BME280;45298;54.918;73.504;2023-07-31T08:06:09;99402.47;;;29.60;43.82
59487;BME280;45298;54.918;73.504;2023-07-31T08:08:38;99396.66;;;29.02;45.68
59487;BME280;45298;54.918;73.504;2023-07-31T08:11:07;99392.91;;;28.35;46.51
59487;BME280;45298;54.918;73.504;2023-07-31T08:13:39;99413.81;;;27.79;49.14
59487;BME280;45298;54.918;73.504;2023-07-31T08:16:10;99407.91;;;26.99;50.87
59487;BME280;45298;54.918;73.504;2023-07-31T08:18:39;99420.31;;;26.43;50.63
59487;BME280;45298;54.918;73.504;2023-07-31T08:21:09;99419.34;;;26.03;49.90
59487;BME280;45298;54.918;73.504;2023-07-31T08:23:38;99421.66;;;25.79;50.79
59487;BME280;45298;54.918;73.504;2023-07-31T08:26:06;99432.97;;;25.70;51.41
59487;BME280;45298;54.918;73.504;2023-07-31T08:28:35;99431.09;;;25.77;52.50
59487;BME280;45298;54.918;73.504;2023-07-31T08:31:05;99417.06;;;25.80;54.39
59487;BME280;45298;54.918;73.504;2023-07-31T08:33:34;99412.88;;;25.91;55.66
59487;BME280;45298;54.918;73.504;2023-07-31T08:36:03;99392.78;;;26.12;56.93
59487;BME280;45298;54.918;73.504;2023-07-31T08:38:32;99389.31;;;26.50;55.63
59487;BME280;45298;54.918;73.504;2023-07-31T08:41:03;99372.13;;;26.95;54.53
59487;BME280;45298;54.918;73.504;2023-07-31T08:43:32;99342.16;;;27.02;53.04
59487;BME280;45298;54.918;73.504;2023-07-31T08:46:02;99373.94;;;27.34;51.39
59487;BME280;45298;54.918;73.504;2023-07-31T08:48:32;99340.66;;;27.32;50.37
59487;BME280;45298;54.918;73.504;2023-07-31T08:51:06;99369.03;;;27.74;49.92
59487;BME280;45298;54.918;73.504;2023-07-31T08:53:36;99365.50;;;28.11;49.92
59487;BME280;45298;54.918;73.504;2023-07-31T08:56:08;99376.44;;;28.42;49.51
59487;BME280;45298;54.918;73.504;2023-07-31T08:58:38;99374.66;;;28.66;47.23
59487;BME280;45298;54.918;73.504;2023-07-31T09:01:08;99342.97;;;28.65;47.21
59487;BME280;45298;54.918;73.504;2023-07-31T09:03:39;99364.63;;;29.09;46.01
59487;BME280;45298;54.918;73.504;2023-07-31T09:06:09;99384.06;;;29.01;44.10
59487;BME280;45298;54.918;73.504;2023-07-31T09:08:40;99362.88;;;29.15;43.75
59487;BME280;45298;54.918;73.504;2023-07-31T09:11:11;99369.63;;;29.12;43.03
59487;BME280;45298;54.918;73.504;2023-07-31T09:13:41;99373.31;;;29.18;43.21
59487;BME280;45298;54.918;73.504;2023-07-31T09:16:10;99363.84;;;29.32;43.13
59487;BME280;45298;54.918;73.504;2023-07-31T09:18:56;99331.13;;;29.02;42.71
59487;BME280;45298;54.918;73.504;2023-07-31T09:21:25;99348.16;;;29.28;42.67
59487;BME280;45298;54.918;73.504;2023-07-31T09:23:57;99375.75;;;29.74;41.92
59487;BME280;45298;54.918;73.504;2023-07-31T09:26:34;99366.16;;;29.71;41.05
59487;BME280;45298;54.918;73.504;2023-07-31T09:29:05;99370.06;;;29.39;41.33
59487;BME280;45298;54.918;73.504;2023-07-31T09:31:40;99365.38;;;29.28;41.27
59487;BME280;45298;54.918;73.504;2023-07-31T09:34:10;99326.03;;;29.05;41.90
59487;BME280;45298;54.918;73.504;2023-07-31T09:36:49;99374.06;;;29.37;42.36
59487;BME280;45298;54.918;73.504;2023-07-31T09:39:18;99362.69;;;29.52;42.34
59487;BME280;45298;54.918;73.504;2023-07-31T09:41:54;99347.84;;;29.72;42.47
59487;BME280;45298;54.918;73.504;2023-07-31T09:44:40;99341.31;;;29.73;42.05
59487;BME280;45298;54.918;73.504;2023-07-31T09:47:29;99354.97;;;29.73;41.75
59487;BME280;45298;54.918;73.504;2023-07-31T09:49:59;99342.63;;;29.70;41.90
59487;BME280;45298;54.918;73.504;2023-07-31T09:52:30;99360.31;;;29.79;42.46
59487;BME280;45298;54.918;73.504;2023-07-31T09:55:02;99341.75;;;29.93;42.00
59487;BME280;45298;54.918;73.504;2023-07-31T09:57:31;99353.28;;;30.07;41.92
59487;BME280;45298;54.918;73.504;2023-07-31T10:00:02;99339.72;;;30.12;41.72
59487;BME280;45298;54.918;73.504;2023-07-31T10:02:38;99353.00;;;30.21;41.29
59487;BME280;45298;54.918;73.504;2023-07-31T10:05:08;99349.69;;;30.19;42.24
59487;BME280;45298;54.918;73.504;2023-07-31T10:07:43;99360.97;;;30.22;41.03
59487;BME280;45298;54.918;73.504;2023-07-31T10:10:13;99364.81;;;30.09;41.32
59487;BME280;45298;54.918;73.504;2023-07-31T10:12:44;99351.81;;;30.17;41.88
59487;BME280;45298;54.918;73.504;2023-07-31T10:15:15;99358.78;;;30.36;41.43
59487;BME280;45298;54.918;73.504;2023-07-31T10:17:44;99365.88;;;30.61;40.79
59487;BME280;45298;54.918;73.504;2023-07-31T10:20:16;99363.31;;;30.71;40.12
59487;BME280;45298;54.918;73.504;2023-07-31T10:22:45;99349.72;;;30.77;39.46
59487;BME280;45298;54.918;73.504;2023-07-31T10:25:18;99362.44;;;30.83;38.82
59487;BME280;45298;54.918;73.504;2023-07-31T10:27:49;99354.88;;;30.73;38.47
59487;BME280;45298;54.918;73.504;2023-07-31T10:30:23;99353.53;;;30.75;38.96
59487;BME280;45298;54.918;73.504;2023-07-31T10:32:53;99351.88;;;30.74;38.04
59487;BME280;45298;54.918;73.504;2023-07-31T10:35:23;99350.75;;;30.87;38.42
59487;BME280;45298;54.918;73.504;2023-07-31T10:37:53;99312.38;;;30.70;37.48
59487;BME280;45298;54.918;73.504;2023-07-31T10:40:27;99339.84;;;30.75;36.83
59487;BME280;45298;54.918;73.504;2023-07-31T10:42:57;99351.81;;;30.69;37.17
59487;BME280;45298;54.918;73.504;2023-07-31T10:45:38;99350.22;;;30.73;37.14
59487;BME280;45298;54.918;73.504;2023-07-31T10:48:13;99343.59;;;30.86;37.17
59487;BME280;45298;54.918;73.504;2023-07-31T10:50:48;99353.09;;;30.96;36.88
59487;BME280;45298;54.918;73.504;2023-07-31T10:53:30;99352.06;;;31.02;36.51
59487;BME280;45298;54.918;73.504;2023-07-31T10:56:10;99357.22;;;30.98;35.96
59487;BME280;45298;54.918;73.504;2023-07-31T10:58:44;99359.72;;;31.00;35.28
59487;BME280;45298;54.918;73.504;2023-07-31T11:01:14;99348.69;;;30.95;35.28
59487;BME280;45298;54.918;73.504;2023-07-31T11:03:46;99340.13;;;30.91;35.91
59487;BME280;45298;54.918;73.504;2023-07-31T11:06:16;99342.84;;;30.91;34.82
59487;BME280;45298;54.918;73.504;2023-07-31T11:08:48;99336.13;;;30.82;34.80
59487;BME280;45298;54.918;73.504;2023-07-31T11:11:20;99294.50;;;30.51;35.93
59487;BME280;45298;54.918;73.504;2023-07-31T11:13:51;99319.03;;;30.74;35.51
59487;BME280;45298;54.918;73.504;2023-07-31T11:16:25;99332.91;;;30.85;35.52
59487;BME280;45298;54.918;73.504;2023-07-31T11:18:54;99354.06;;;30.89;35.08
59487;BME280;45298;54.918;73.504;2023-07-31T11:21:24;99332.22;;;30.78;35.43
59487;BME280;45298;54.918;73.504;2023-07-31T11:23:57;99345.75;;;30.84;35.46
59487;BME280;45298;54.918;73.504;2023-07-31T11:26:28;99336.94;;;30.65;35.73
59487;BME280;45298;54.918;73.504;2023-07-31T11:28:59;99353.59;;;30.52;35.86
59487;BME280;45298;54.918;73.504;2023-07-31T11:31:28;99351.28;;;30.43;36.53
59487;BME280;45298;54.918;73.504;2023-07-31T11:34:06;99336.31;;;30.34;36.93
59487;BME280;45298;54.918;73.504;2023-07-31T11:36:35;99355.69;;;30.44;36.77
59487;BME280;45298;54.918;73.504;2023-07-31T11:39:07;99346.78;;;30.37;37.13
59487;BME280;45298;54.918;73.504;2023-07-31T11:41:40;99333.50;;;30.29;37.02
59487;BME280;45298;54.918;73.504;2023-07-31T11:44:10;99340.84;;;30.28;37.26
59487;BME280;45298;54.918;73.504;2023-07-31T11:46:57;99342.66;;;30.23;37.34
59487;BME280;45298;54.918;73.504;2023-07-31T11:49:29;99325.09;;;30.07;37.64
59487;BME280;45298;54.918;73.504;2023-07-31T11:52:00;99291.69;;;29.93;37.63
59487;BME280;45298;54.918;73.504;2023-07-31T11:54:29;99308.94;;;30.05;37.17
59487;BME280;45298;54.918;73.504;2023-07-31T11:56:58;99321.78;;;30.05;37.23
59487;BME280;45298;54.918;73.504;2023-07-31T11:59:29;99326.66;;;30.03;37.79
59487;BME280;45298;54.918;73.504;2023-07-31T12:01:58;99316.44;;;29.98;38.04
59487;BME280;45298;54.918;73.504;2023-07-31T12:04:31;99282.84;;;29.74;38.16
59487;BME280;45298;54.918;73.504;2023-07-31T12:07:02;99279.25;;;29.73;38.22
59487;BME280;45298;54.918;73.504;2023-07-31T12:09:31;99299.94;;;29.81;38.13
59487;BME280;45298;54.918;73.504;2023-07-31T12:12:00;99315.25;;;29.82;37.98
59487;BME280;45298;54.918;73.504;2023-07-31T12:14:29;99306.72;;;29.78;37.48
59487;BME280;45298;54.918;73.504;2023-07-31T12:17:03;99304.38;;;29.70;37.80
59487;BME280;45298;54.918;73.504;2023-07-31T12:19:33;99322.28;;;29.78;37.88
59487;BME280;45298;54.918;73.504;2023-07-31T12:22:15;99323.25;;;29.72;38.41
59487;BME280;45298;54.918;73.504;2023-07-31T12:24:45;99328.84;;;29.65;38.24
59487;BME280;45298;54.918;73.504;2023-07-31T12:27:15;99319.69;;;29.47;38.55
59487;BME280;45298;54.918;73.504;2023-07-31T12:29:45;99326.22;;;29.46;38.79
59487;BME280;45298;54.918;73.504;2023-07-31T12:32:24;99324.44;;;29.40;38.84
59487;BME280;45298;54.918;73.504;2023-07-31T12:34:59;99332.28;;;29.36;38.85
59487;BME280;45298;54.918;73.504;2023-07-31T12:37:29;99329.66;;;29.30;39.16
59487;BME280;45298;54.918;73.504;2023-07-31T12:40:00;99331.88;;;29.33;39.17
59487;BME280;45298;54.918;73.504;2023-07-31T12:42:36;99338.03;;;29.16;39.47
59487;BME280;45298;54.918;73.504;2023-07-31T12:45:05;99339.94;;;29.04;39.50
59487;BME280;45298;54.918;73.504;2023-07-31T12:47:34;99347.97;;;28.99;40.10
59487;BME280;45298;54.918;73.504;2023-07-31T12:50:03;99334.06;;;28.76;39.97
59487;BME280;45298;54.918;73.504;2023-07-31T12:52:33;99332.78;;;28.60;40.18
59487;BME280;45298;54.918;73.504;2023-07-31T12:55:02;99323.94;;;28.46;40.51
59487;BME280;45298;54.918;73.504;2023-07-31T12:57:31;99339.78;;;28.38;40.97
59487;BME280;45298;54.918;73.504;2023-07-31T13:00:00;99325.13;;;28.20;41.45
59487;BME280;45298;54.918;73.504;2023-07-31T13:02:29;99334.00;;;28.15;41.68
59487;BME280;45298;54.918;73.504;2023-07-31T13:04:58;99339.91;;;28.12;42.52
59487;BME280;45298;54.918;73.504;2023-07-31T13:07:27;99347.28;;;28.05;42.65
59487;BME280;45298;54.918;73.504;2023-07-31T13:09:55;99341.78;;;27.93;42.54
59487;BME280;45298;54.918;73.504;2023-07-31T13:12:24;99350.53;;;27.95;43.11
59487;BME280;45298;54.918;73.504;2023-07-31T13:14:53;99354.72;;;27.98;43.21
59487;BME280;45298;54.918;73.504;2023-07-31T13:17:23;99343.44;;;27.94;43.65